Time;durP1;ratioP1;P1;durP2;ratioP2;P2;SDS_P1;SDS_P2;PMS_P1;PMS_P2;Temp;Humidity;BMP_temperature;BMP_pressure;BME280_temperature;BME280_humidity;BME280_pressure;Samples;Min_cycle;Max_cycle;Signal;HPM_P1;HPM_P2
2021/10/19 01:21:12;;;;;;;8.45;2.42;;;26.60;60.90;;;;;;5107266;27;20529;-58
2021/10/19 01:23:40;;;;;;;7.28;2.42;;;26.20;64.90;;;;;;5094951;28;20035;-59
2021/10/19 01:26:09;;;;;;;8.35;2.22;;;25.90;65.10;;;;;;5092094;28;20023;-58
2021/10/19 01:28:40;;;;;;;7.15;2.20;;;26.50;64.10;;;;;;5093605;28;20024;-57
2021/10/19 01:31:07;;;;;;;9.68;2.53;;;26.80;60.70;;;;;;5093724;28;20107;-52
2021/10/19 01:33:34;;;;;;;8.50;2.30;;;25.80;63.70;;;;;;5091038;28;20107;-70
2021/10/19 01:36:01;;;;;;;8.48;2.65;;;25.40;64.80;;;;;;5093308;28;20525;-68
2021/10/19 01:38:29;;;;;;;12.63;2.65;;;25.30;70.00;;;;;;5093006;28;20243;-68
2021/10/19 01:40:57;;;;;;;9.88;2.67;;;24.70;87.90;;;;;;5093830;28;20364;-69
2021/10/19 01:43:26;;;;;;;8.43;3.20;;;24.30;93.60;;;;;;5085724;28;20112;-69
2021/10/19 01:45:58;;;;;;;8.18;2.95;;;24.30;93.00;;;;;;5091679;28;20395;-68
2021/10/19 01:48:26;;;;;;;9.30;3.05;;;24.10;96.60;;;;;;5093190;28;20027;-71
2021/10/19 01:50:54;;;;;;;11.30;5.70;;;23.90;96.70;;;;;;5090704;28;20040;-68
2021/10/19 01:53:22;;;;;;;6.35;2.30;;;24.40;96.40;;;;;;5091409;28;20113;-64
2021/10/19 01:55:49;;;;;;;5.65;2.05;;;25.10;93.50;;;;;;5090017;28;20028;-68
2021/10/19 01:58:22;;;;;;;10.45;4.00;;;25.60;93.40;;;;;;5088460;28;20020;-68
2021/10/19 02:00:50;;;;;;;6.63;2.28;;;26.10;87.90;;;;;;5088361;28;20020;-70
2021/10/19 02:03:17;;;;;;;8.40;2.75;;;26.70;82.50;;;;;;5091452;28;20024;-67
2021/10/19 02:05:44;;;;;;;7.47;2.25;;;26.60;79.30;;;;;;5090549;28;20486;-71
2021/10/19 02:08:11;;;;;;;5.85;2.03;;;26.40;77.00;;;;;;5094945;28;20103;-63
2021/10/19 02:10:38;;;;;;;12.57;2.38;;;26.40;77.20;;;;;;5094516;28;20559;-69
2021/10/19 02:13:07;;;;;;;9.48;2.47;;;25.80;75.30;;;;;;5097662;28;20157;-70
2021/10/19 02:15:34;;;;;;;12.05;2.22;;;25.20;77.00;;;;;;5093068;28;20097;-71
2021/10/19 02:18:05;;;;;;;5.47;2.00;;;24.50;81.20;;;;;;5094664;28;20103;-64
2021/10/19 02:20:33;;;;;;;5.88;2.20;;;24.10;80.50;;;;;;5098212;28;20044;-72
2021/10/19 02:23:00;;;;;;;9.50;2.15;;;23.60;83.20;;;;;;5096804;28;20473;-63
2021/10/19 02:25:27;;;;;;;11.75;2.78;;;23.30;84.90;;;;;;5092916;28;20092;-63
2021/10/19 02:27:54;;;;;;;7.05;1.77;;;23.60;85.10;;;;;;5093530;28;20032;-65
2021/10/19 02:30:22;;;;;;;7.43;2.40;;;24.40;81.50;;;;;;5092079;28;20028;-68
2021/10/19 02:32:49;;;;;;;9.55;2.17;;;25.00;77.60;;;;;;5082099;28;20030;-66
2021/10/19 02:35:18;;;;;;;8.32;2.10;;;24.40;79.80;;;;;;5078176;28;20032;-63
2021/10/19 02:37:46;;;;;;;12.82;2.53;;;23.90;83.00;;;;;;5081344;28;20034;-67
2021/10/19 02:40:15;;;;;;;8.63;2.75;;;23.30;86.10;;;;;;5080211;28;20051;-73
2021/10/19 02:42:44;;;;;;;7.22;2.40;;;22.60;90.40;;;;;;5075914;28;20158;-70
2021/10/19 02:45:11;;;;;;;12.05;2.97;;;22.40;91.80;;;;;;5078486;28;20028;-68
2021/10/19 02:47:41;;;;;;;9.07;1.83;;;22.30;91.90;;;;;;5080566;28;20024;-63
2021/10/19 02:50:10;;;;;;;7.68;2.20;;;22.30;91.50;;;;;;5083839;28;20031;-68
2021/10/19 02:52:37;;;;;;;9.40;2.28;;;22.10;92.50;;;;;;5075809;28;20028;-65
2021/10/19 02:55:06;;;;;;;9.23;2.05;;;22.30;92.70;;;;;;5082037;28;20016;-70
2021/10/19 02:57:33;;;;;;;7.13;2.00;;;22.20;92.60;;;;;;5083082;28;20052;-67
2021/10/19 03:00:00;;;;;;;9.93;2.72;;;22.20;92.50;;;;;;5081100;28;20040;-73
2021/10/19 03:02:27;;;;;;;9.52;2.40;;;22.40;92.20;;;;;;5086694;28;20049;-70
2021/10/19 03:04:54;;;;;;;5.78;2.60;;;22.70;91.20;;;;;;5080166;28;20501;-65
2021/10/19 03:07:21;;;;;;;6.68;1.70;;;22.50;91.10;;;;;;5080197;28;20023;-75
2021/10/19 03:09:48;;;;;;;8.18;2.10;;;22.90;91.10;;;;;;5081940;28;20027;-70
2021/10/19 03:12:15;;;;;;;9.70;2.65;;;22.60;91.40;;;;;;5080523;28;20103;-65
2021/10/19 03:14:42;;;;;;;6.30;2.20;;;22.60;92.00;;;;;;5080999;28;20111;-72
2021/10/19 03:17:09;;;;;;;10.05;2.53;;;22.70;91.40;;;;;;5080111;28;20104;-71
2021/10/19 03:19:36;;;;;;;7.68;2.00;;;23.00;91.70;;;;;;5077052;28;20150;-67
2021/10/19 03:22:03;;;;;;;8.02;2.05;;;23.20;89.00;;;;;;5076213;28;20078;-73
2021/10/19 03:24:30;;;;;;;5.55;1.85;;;23.10;89.70;;;;;;5082912;28;20035;-70
2021/10/19 03:26:57;;;;;;;9.32;1.92;;;23.30;86.80;;;;;;5074261;28;20058;-70
2021/10/19 03:29:25;;;;;;;8.25;1.88;;;23.80;87.40;;;;;;5079304;28;20059;-68
2021/10/19 03:31:52;;;;;;;8.18;1.63;;;24.40;82.70;;;;;;5074442;28;20040;-70
2021/10/19 03:34:19;;;;;;;6.57;1.70;;;24.70;81.50;;;;;;5080239;28;20020;-66
2021/10/19 03:36:49;;;;;;;4.38;2.00;;;24.70;82.50;;;;;;5083167;28;20035;-71
2021/10/19 03:39:16;;;;;;;7.80;2.05;;;24.20;82.50;;;;;;5080984;28;20028;-69
2021/10/19 03:41:44;;;;;;;7.40;2.03;;;23.90;81.50;;;;;;5084006;28;20031;-70
2021/10/19 03:44:11;;;;;;;6.97;2.17;;;23.60;82.70;;;;;;5081293;28;20028;-69
2021/10/19 03:46:38;;;;;;;7.53;2.00;;;23.60;83.90;;;;;;5074522;28;20013;-68
2021/10/19 03:49:04;;;;;;;14.73;2.00;;;23.50;85.20;;;;;;5078402;28;20317;-72
2021/10/19 03:51:31;;;;;;;9.15;2.28;;;23.50;83.60;;;;;;5080963;28;20021;-70
2021/10/19 03:53:58;;;;;;;9.02;1.67;;;22.90;86.70;;;;;;5081557;28;20266;-71
2021/10/19 03:56:25;;;;;;;12.27;2.40;;;22.30;88.90;;;;;;5072577;28;20031;-72
2021/10/19 03:58:53;;;;;;;4.68;1.75;;;22.10;89.30;;;;;;5071868;28;20021;-67
2021/10/19 04:01:20;;;;;;;9.27;2.35;;;22.60;88.40;;;;;;4723021;28;9999982;-71
2021/10/19 04:03:47;;;;;;;11.90;1.75;;;22.60;85.60;;;;;;5075684;28;20036;-69
2021/10/19 04:06:14;;;;;;;6.63;1.80;;;22.00;89.40;;;;;;5068080;28;20052;-72
2021/10/19 04:08:41;;;;;;;8.63;2.40;;;21.80;90.00;;;;;;5075482;28;20508;-69
2021/10/19 04:11:08;;;;;;;5.47;1.67;;;21.30;90.50;;;;;;5060782;28;20111;-67
2021/10/19 04:13:35;;;;;;;5.38;1.73;;;21.20;91.60;;;;;;5068246;28;20055;-71
2021/10/19 04:16:02;;;;;;;6.10;2.70;;;21.40;91.20;;;;;;5069121;28;20112;-73
2021/10/19 04:18:29;;;;;;;9.43;1.45;;;21.90;90.30;;;;;;5068427;28;20032;-69
2021/10/19 04:20:56;;;;;;;5.35;1.10;;;22.30;88.60;;;;;;5068084;28;20562;-67
2021/10/19 04:23:23;;;;;;;6.28;1.88;;;22.20;86.60;;;;;;5066596;28;20036;-69
2021/10/19 04:25:50;;;;;;;3.42;1.40;;;22.00;86.30;;;;;;5068021;28;20031;-70
2021/10/19 04:28:17;;;;;;;6.97;1.50;;;21.60;88.50;;;;;;5067118;28;20028;-71
2021/10/19 04:30:46;;;;;;;7.95;1.83;;;21.30;88.80;;;;;;5067317;28;20021;-69
2021/10/19 04:33:14;;;;;;;8.10;1.67;;;21.10;90.00;;;;;;5066744;28;20009;-69
2021/10/19 04:35:41;;;;;;;5.13;1.30;;;21.30;88.60;;;;;;5067104;28;20545;-70
2021/10/19 04:38:08;;;;;;;7.18;1.98;;;21.20;89.00;;;;;;5069711;28;20024;-66
2021/10/19 04:40:36;;;;;;;7.72;1.88;;;21.20;89.00;;;;;;5072437;28;20462;-65
2021/10/19 04:43:03;;;;;;;6.00;1.90;;;21.30;89.10;;;;;;5065015;28;20040;-73
2021/10/19 04:45:30;;;;;;;7.80;1.52;;;21.30;87.20;;;;;;5069544;28;20021;-73
2021/10/19 04:47:58;;;;;;;6.28;1.60;;;21.00;87.80;;;;;;5066301;28;20581;-65
2021/10/19 04:50:25;;;;;;;5.88;1.50;;;20.90;88.10;;;;;;5066871;28;20032;-65
2021/10/19 04:52:52;;;;;;;5.28;1.52;;;20.50;89.40;;;;;;5067432;28;20012;-70
2021/10/19 04:55:19;;;;;;;7.35;1.77;;;20.40;90.30;;;;;;5070953;28;20036;-71
2021/10/19 04:57:46;;;;;;;6.10;2.03;;;20.40;91.20;;;;;;5076199;28;20021;-74
2021/10/19 05:00:13;;;;;;;3.63;1.52;;;20.60;90.60;;;;;;5070468;28;20115;-69
2021/10/19 05:02:45;;;;;;;4.50;1.10;;;20.60;90.20;;;;;;5076282;28;20032;-65
2021/10/19 05:05:13;;;;;;;3.63;0.90;;;20.60;89.80;;;;;;5075808;28;20016;-65
2021/10/19 05:07:40;;;;;;;4.68;1.10;;;20.70;89.10;;;;;;5071835;28;20032;-67
2021/10/19 05:10:08;;;;;;;5.07;1.23;;;20.70;89.00;;;;;;5068453;28;20027;-65
2021/10/19 05:12:35;;;;;;;3.08;1.05;;;20.90;87.30;;;;;;5068515;28;20040;-69
2021/10/19 05:15:03;;;;;;;2.40;1.10;;;20.90;86.20;;;;;;5067088;28;20020;-70
2021/10/19 05:17:30;;;;;;;4.10;1.45;;;20.90;86.80;;;;;;5074966;28;20479;-71
2021/10/19 05:20:00;;;;;;;6.80;1.95;;;20.70;86.80;;;;;;5071540;28;20540;-65
2021/10/19 05:22:27;;;;;;;3.67;1.33;;;20.80;87.00;;;;;;5072659;28;20047;-70
2021/10/19 05:24:54;;;;;;;3.78;1.40;;;20.70;87.00;;;;;;5071357;28;20267;-65
2021/10/19 05:27:21;;;;;;;3.53;1.45;;;20.50;88.20;;;;;;5073577;28;20035;-66
2021/10/19 05:29:48;;;;;;;3.03;1.42;;;20.30;87.50;;;;;;5070538;28;20020;-66
2021/10/19 05:32:16;;;;;;;6.05;1.55;;;19.90;89.30;;;;;;5066676;28;20491;-71
2021/10/19 05:34:44;;;;;;;2.50;1.52;;;19.40;90.60;;;;;;5072503;28;20111;-64
2021/10/19 05:37:10;;;;;;;3.85;1.40;;;18.90;91.40;;;;;;5072827;28;20033;-69
2021/10/19 05:39:39;;;;;;;5.68;1.45;;;18.80;91.90;;;;;;5073285;28;20028;-70
2021/10/19 05:42:06;;;;;;;8.27;2.58;;;18.60;91.90;;;;;;5073977;28;20017;-65
2021/10/19 05:44:33;;;;;;;1.80;0.95;;;18.40;93.20;;;;;;5075025;28;20417;-71
2021/10/19 05:47:00;;;;;;;4.55;1.40;;;18.30;92.50;;;;;;5077927;28;20071;-77
2021/10/19 05:49:27;;;;;;;5.15;0.90;;;18.50;92.50;;;;;;5075596;28;20597;-73
2021/10/19 05:51:55;;;;;;;2.17;0.63;;;18.50;92.40;;;;;;5072444;28;20394;-67
2021/10/19 05:54:23;;;;;;;0.80;0.50;;;18.40;92.30;;;;;;5071037;28;20028;-70
2021/10/19 05:56:51;;;;;;;2.92;0.68;;;18.30;92.90;;;;;;5074108;28;20440;-68
2021/10/19 05:59:19;;;;;;;1.58;0.68;;;18.30;92.30;;;;;;5075658;28;20028;-65
2021/10/19 06:01:46;;;;;;;0.50;0.40;;;18.00;93.00;;;;;;5071550;28;20115;-69
2021/10/19 06:04:13;;;;;;;2.88;0.85;;;18.00;93.10;;;;;;5072884;28;20032;-69
2021/10/19 06:06:59;;;;;;;0.88;0.50;;;18.00;93.00;;;;;;5078643;28;20048;-66
2021/10/19 06:09:28;;;;;;;2.60;1.58;;;17.90;93.70;;;;;;5077883;28;20024;-69
2021/10/19 06:11:55;;;;;;;10.73;7.43;;;18.00;93.20;;;;;;5081006;28;20026;-69
2021/10/19 06:14:24;;;;;;;2.53;0.90;;;18.20;93.10;;;;;;5083283;28;20063;-69
2021/10/19 06:16:51;;;;;;;2.90;0.50;;;18.30;92.60;;;;;;5078376;28;20036;-70
2021/10/19 06:19:19;;;;;;;2.25;1.15;;;18.30;91.90;;;;;;5077822;28;20068;-68
2021/10/19 06:21:46;;;;;;;3.47;1.60;;;18.30;92.20;;;;;;5069877;28;20319;-69
2021/10/19 06:24:13;;;;;;;6.20;1.75;;;18.30;92.10;;;;;;5070460;28;20081;-69
2021/10/19 06:26:40;;;;;;;4.88;1.58;;;18.30;93.30;;;;;;5061935;28;20024;-74
2021/10/19 06:29:11;;;;;;;2.28;0.98;;;18.40;92.50;;;;;;5069927;28;20024;-72
2021/10/19 06:31:40;;;;;;;3.92;0.93;;;18.30;91.30;;;;;;5079354;28;20481;-70
2021/10/19 06:34:08;;;;;;;2.35;0.98;;;18.30;92.40;;;;;;5085457;28;20020;-70
2021/10/19 06:36:35;;;;;;;4.07;1.23;;;18.20;91.90;;;;;;5085845;28;20008;-69
2021/10/19 06:39:03;;;;;;;2.15;0.65;;;18.20;91.50;;;;;;5071049;28;20020;-73
2021/10/19 06:41:31;;;;;;;2.15;0.75;;;18.00;90.80;;;;;;5072577;28;20583;-68
2021/10/19 06:43:59;;;;;;;2.90;0.68;;;17.70;91.20;;;;;;5068620;28;20631;-70
2021/10/19 06:46:27;;;;;;;1.27;0.77;;;17.50;91.40;;;;;;5069314;28;20020;-72
2021/10/19 06:48:54;;;;;;;1.65;0.70;;;17.40;92.00;;;;;;5067314;28;20804;-70
2021/10/19 06:51:21;;;;;;;1.42;0.50;;;17.30;92.00;;;;;;5068629;28;20529;-68
2021/10/19 06:53:48;;;;;;;1.02;0.60;;;17.40;92.00;;;;;;5067969;28;20024;-71
2021/10/19 06:56:15;;;;;;;0.80;0.70;;;17.40;91.30;;;;;;5065183;28;20047;-71
2021/10/19 06:58:42;;;;;;;2.17;1.13;;;17.30;91.30;;;;;;5065964;28;20044;-69
2021/10/19 07:01:09;;;;;;;4.90;0.80;;;17.30;90.50;;;;;;5066606;28;20457;-70
2021/10/19 07:03:37;;;;;;;3.40;1.35;;;17.10;90.40;;;;;;5066673;28;20016;-69
2021/10/19 07:06:05;;;;;;;0.73;0.60;;;16.90;90.70;;;;;;5079992;28;20020;-75
2021/10/19 07:08:36;;;;;;;1.45;1.05;;;16.90;90.60;;;;;;5068009;28;20340;-72
2021/10/19 07:11:03;;;;;;;1.08;0.50;;;16.80;90.60;;;;;;5068777;28;20105;-71
2021/10/19 07:13:30;;;;;;;1.17;0.50;;;16.80;90.90;;;;;;5070652;28;20028;-68
2021/10/19 07:15:57;;;;;;;2.47;0.90;;;16.80;90.90;;;;;;5069483;28;20059;-70
2021/10/19 07:18:26;;;;;;;2.05;1.17;;;16.80;91.00;;;;;;5070296;28;20431;-73
2021/10/19 07:20:54;;;;;;;3.70;1.58;;;16.80;90.60;;;;;;5071379;28;20383;-70
2021/10/19 07:23:21;;;;;;;2.67;0.70;;;16.70;91.30;;;;;;5071074;28;20020;-68
2021/10/19 07:25:49;;;;;;;2.45;1.00;;;16.50;91.50;;;;;;5070167;28;20048;-71
2021/10/19 07:28:16;;;;;;;1.02;0.60;;;16.50;91.20;;;;;;5068801;28;20032;-70
2021/10/19 07:30:45;;;;;;;1.17;0.60;;;16.40;92.20;;;;;;5071301;28;20028;-70
2021/10/19 07:33:13;;;;;;;2.53;0.68;;;16.40;92.10;;;;;;5071366;28;20509;-76
2021/10/19 07:35:40;;;;;;;3.15;1.42;;;16.40;91.90;;;;;;5070173;28;20429;-73
2021/10/19 07:38:07;;;;;;;2.45;0.80;;;16.40;91.70;;;;;;5067232;28;20028;-71
2021/10/19 07:40:34;;;;;;;2.85;0.98;;;16.30;91.30;;;;;;5068196;28;20020;-67
2021/10/19 07:43:01;;;;;;;3.50;1.23;;;16.20;91.70;;;;;;5068420;28;20024;-73
2021/10/19 07:45:29;;;;;;;2.17;1.20;;;16.30;92.10;;;;;;5076592;28;20027;-67
2021/10/19 07:48:00;;;;;;;2.13;0.90;;;16.30;91.50;;;;;;5070753;28;20076;-77
2021/10/19 07:50:29;;;;;;;2.22;1.05;;;16.20;91.80;;;;;;5071875;28;20382;-75
2021/10/19 07:52:58;;;;;;;1.95;0.57;;;16.20;92.00;;;;;;5073332;28;20082;-73
2021/10/19 07:55:26;;;;;;;2.58;1.00;;;16.10;92.20;;;;;;5070608;28;20179;-74
2021/10/19 07:57:54;;;;;;;1.08;0.52;;;16.10;92.50;;;;;;5072751;28;20081;-72
2021/10/19 08:00:26;;;;;;;1.83;0.73;;;16.10;92.60;;;;;;5076557;28;20024;-74
2021/10/19 08:02:54;;;;;;;3.67;0.90;;;16.00;93.10;;;;;;5075400;28;20070;-73
2021/10/19 08:05:21;;;;;;;6.90;0.70;;;16.00;93.60;;;;;;5076099;28;20028;-68
2021/10/19 08:07:51;;;;;;;2.45;0.80;;;15.90;94.20;;;;;;5068784;28;20090;-69
2021/10/19 08:10:21;;;;;;;4.53;1.05;;;15.90;95.20;;;;;;5073635;28;20043;-70
2021/10/19 08:12:50;;;;;;;1.27;0.50;;;15.90;95.20;;;;;;5072598;28;20076;-68
2021/10/19 08:15:17;;;;;;;4.13;1.00;;;15.80;95.50;;;;;;5074718;28;20032;-68
2021/10/19 08:17:48;;;;;;;2.13;0.70;;;15.80;95.70;;;;;;5076092;28;20036;-67
2021/10/19 08:20:16;;;;;;;4.85;1.00;;;15.80;96.00;;;;;;5074524;28;20835;-68
2021/10/19 08:22:43;;;;;;;4.85;1.02;;;15.70;95.80;;;;;;5072793;28;20031;-68
2021/10/19 08:25:11;;;;;;;4.82;1.10;;;15.70;95.70;;;;;;5072364;28;20538;-67
2021/10/19 08:27:41;;;;;;;1.52;0.68;;;15.70;95.90;;;;;;5073546;28;20024;-71
2021/10/19 08:30:11;;;;;;;4.32;0.75;;;15.60;95.50;;;;;;5070957;28;20464;-70
2021/10/19 08:32:38;;;;;;;3.92;0.82;;;15.60;95.50;;;;;;5068704;28;20039;-70
2021/10/19 08:35:07;;;;;;;5.80;1.00;;;15.60;95.20;;;;;;5068195;28;20107;-69
2021/10/19 08:37:34;;;;;;;4.30;0.73;;;15.60;95.30;;;;;;5072103;28;20540;-68
2021/10/19 08:40:01;;;;;;;2.95;0.90;;;15.50;95.30;;;;;;5071141;28;20028;-72
2021/10/19 08:42:29;;;;;;;1.52;0.80;;;15.50;95.60;;;;;;5068493;28;20449;-69
2021/10/19 08:44:56;;;;;;;4.18;1.00;;;15.40;96.00;;;;;;5071354;28;20024;-69
2021/10/19 08:47:24;;;;;;;2.28;0.80;;;15.40;96.00;;;;;;5062642;28;20135;-67
2021/10/19 08:49:51;;;;;;;2.50;0.80;;;15.40;96.20;;;;;;5064705;28;20047;-70
2021/10/19 08:52:18;;;;;;;2.33;1.10;;;15.30;96.30;;;;;;5069972;28;20445;-69
2021/10/19 08:54:45;;;;;;;1.55;0.80;;;15.30;96.10;;;;;;5072331;28;20020;-74
2021/10/19 08:57:17;;;;;;;2.42;0.90;;;15.20;96.60;;;;;;5071229;28;20028;-70
2021/10/19 08:59:46;;;;;;;3.65;0.98;;;15.10;97.00;;;;;;5066983;28;20397;-67
2021/10/19 09:02:15;;;;;;;5.13;0.80;;;15.10;97.40;;;;;;5073580;28;20368;-65
2021/10/19 09:04:43;;;;;;;1.98;0.80;;;15.10;97.60;;;;;;5067713;28;20028;-65
2021/10/19 09:07:11;;;;;;;4.90;1.48;;;15.10;98.20;;;;;;5068269;28;20383;-67
2021/10/19 09:09:38;;;;;;;3.72;1.60;;;15.10;98.70;;;;;;5066280;28;20111;-71
2021/10/19 09:12:06;;;;;;;5.82;1.23;;;15.00;98.60;;;;;;5069184;28;20054;-69
2021/10/19 09:14:38;;;;;;;4.07;1.20;;;15.00;98.40;;;;;;5070260;28;20398;-67
2021/10/19 09:17:05;;;;;;;2.28;1.55;;;15.00;98.50;;;;;;5066796;28;20398;-70
2021/10/19 09:19:37;;;;;;;3.45;0.95;;;14.90;99.50;;;;;;5066275;28;20052;-68
2021/10/19 09:22:07;;;;;;;3.55;0.90;;;14.90;98.60;;;;;;5068179;28;20036;-67
2021/10/19 09:24:38;;;;;;;3.05;1.00;;;14.90;98.90;;;;;;5066824;28;20039;-67
2021/10/19 09:27:17;;;;;;;2.45;0.98;;;14.90;99.00;;;;;;5066350;28;20114;-68
2021/10/19 09:29:50;;;;;;;4.22;1.05;;;14.80;99.20;;;;;;5067918;28;20631;-68
2021/10/19 09:32:19;;;;;;;4.97;1.00;;;14.80;98.90;;;;;;5069651;28;21226;-68
2021/10/19 09:34:48;;;;;;;4.10;1.83;;;14.80;98.90;;;;;;5069381;28;20037;-65
2021/10/19 09:37:20;;;;;;;3.88;1.00;;;14.80;99.50;;;;;;5071260;28;20355;-69
2021/10/19 09:39:51;;;;;;;2.72;0.90;;;14.80;98.50;;;;;;5067166;28;20071;-69
2021/10/19 09:42:23;;;;;;;2.88;0.82;;;14.80;99.20;;;;;;5069274;28;20032;-71
2021/10/19 09:44:52;;;;;;;1.75;0.80;;;14.80;97.70;;;;;;5073315;28;20566;-67
2021/10/19 09:47:19;;;;;;;5.05;1.33;;;14.90;99.00;;;;;;5072520;28;20066;-72
2021/10/19 09:49:48;;;;;;;5.90;1.13;;;14.80;98.10;;;;;;5073954;28;20040;-70
2021/10/19 09:52:15;;;;;;;3.55;1.05;;;14.70;98.60;;;;;;5072354;28;20032;-72
2021/10/19 09:54:42;;;;;;;2.22;1.40;;;14.70;97.60;;;;;;5072078;28;20287;-71
2021/10/19 09:57:10;;;;;;;5.43;1.23;;;14.70;97.70;;;;;;5073515;28;20348;-74
2021/10/19 09:59:37;;;;;;;7.43;1.00;;;14.70;97.60;;;;;;5076496;28;20032;-69
2021/10/19 10:02:05;;;;;;;3.40;1.20;;;14.60;97.90;;;;;;5081632;28;20143;-73
2021/10/19 10:04:33;;;;;;;2.45;0.80;;;14.50;98.00;;;;;;5077010;28;20043;-71
2021/10/19 10:07:00;;;;;;;5.57;1.05;;;14.50;97.90;;;;;;5078394;28;20025;-71
2021/10/19 10:09:28;;;;;;;4.00;0.90;;;14.40;98.20;;;;;;5074891;28;20380;-72
2021/10/19 10:11:55;;;;;;;2.25;1.00;;;14.40;97.50;;;;;;5067802;28;20020;-73
2021/10/19 10:14:22;;;;;;;2.72;0.80;;;14.40;98.20;;;;;;5070917;28;20505;-72
2021/10/19 10:16:50;;;;;;;6.00;1.00;;;14.20;98.60;;;;;;5069106;28;20060;-67
2021/10/19 10:19:20;;;;;;;3.70;1.00;;;14.10;99.10;;;;;;5071834;28;20358;-69
2021/10/19 10:21:49;;;;;;;2.80;0.70;;;14.10;99.20;;;;;;5079288;28;20035;-74
2021/10/19 10:24:30;;;;;;;1.75;1.00;;;14.00;99.70;;;;;;5074015;28;20052;-69
2021/10/19 10:27:05;;;;;;;2.40;0.75;;;13.90;99.90;;;;;;5071009;28;20031;-68
2021/10/19 10:29:58;;;;;;;2.17;0.95;;;13.80;99.90;;;;;;5076800;28;20031;-71
2021/10/19 10:32:33;;;;;;;6.13;1.02;;;13.80;99.90;;;;;;5073281;28;20040;-70
2021/10/19 10:35:08;;;;;;;1.60;1.10;;;13.80;99.90;;;;;;5074159;28;20450;-72
2021/10/19 10:37:45;;;;;;;4.22;1.00;;;13.80;99.70;;;;;;5072035;28;20436;-69
2021/10/19 10:40:33;;;;;;;3.55;0.90;;;13.70;99.90;;;;;;5078126;28;20026;-71
2021/10/19 10:43:16;;;;;;;3.20;0.90;;;13.60;99.90;;;;;;5072087;28;20223;-69
2021/10/19 10:45:43;;;;;;;5.30;1.60;;;13.50;99.90;;;;;;5074753;28;20120;-69
2021/10/19 10:48:10;;;;;;;6.88;1.70;;;13.40;99.90;;;;;;5070286;28;20162;-68
2021/10/19 10:50:38;;;;;;;2.67;1.25;;;13.30;99.90;;;;;;5077298;28;20493;-69
2021/10/19 10:53:08;;;;;;;8.07;1.30;;;13.20;99.90;;;;;;5075991;28;20033;-71
2021/10/19 10:55:43;;;;;;;2.45;1.10;;;13.10;99.90;;;;;;5078072;28;20043;-69
2021/10/19 10:58:10;;;;;;;3.60;1.00;;;13.00;99.90;;;;;;5077097;28;20024;-68
2021/10/19 11:00:38;;;;;;;2.38;0.88;;;13.00;99.90;;;;;;5073777;28;20055;-71
2021/10/19 11:03:19;;;;;;;4.57;0.82;;;13.00;99.90;;;;;;4727615;28;10000416;-73
2021/10/19 11:05:58;;;;;;;2.15;0.73;;;13.00;99.90;;;;;;5074535;28;20440;-69
2021/10/19 11:08:29;;;;;;;1.88;0.80;;;12.90;99.90;;;;;;5071192;28;20086;-69
2021/10/19 11:11:08;;;;;;;3.50;0.98;;;12.80;99.90;;;;;;5069076;28;20041;-68
2021/10/19 11:13:58;;;;;;;5.35;1.48;;;12.80;99.90;;;;;;5072482;28;20135;-70
2021/10/19 11:16:34;;;;;;;3.22;0.80;;;12.70;99.90;;;;;;5066812;28;20032;-69
2021/10/19 11:19:04;;;;;;;7.50;4.85;;;12.60;99.90;;;;;;5065208;28;20036;-70
2021/10/19 11:21:32;;;;;;;23.20;17.23;;;12.60;99.90;;;;;;5071036;28;20055;-70
2021/10/19 11:24:00;;;;;;;3.35;1.83;;;12.50;99.90;;;;;;5069907;28;20029;-70
2021/10/19 11:26:28;;;;;;;3.22;1.27;;;12.40;99.90;;;;;;5062824;28;20029;-69
2021/10/19 11:28:56;;;;;;;4.68;1.30;;;12.30;99.90;;;;;;5060852;28;20056;-68
2021/10/19 11:31:26;;;;;;;4.35;1.38;;;12.20;99.90;;;;;;5070406;28;20024;-69
2021/10/19 11:33:54;;;;;;;2.63;1.05;;;12.10;99.90;;;;;;5077770;28;20107;-69
2021/10/19 11:36:21;;;;;;;0.90;0.52;;;12.00;99.90;;;;;;5066739;28;20040;-69
2021/10/19 11:38:51;;;;;;;3.53;1.05;;;12.00;99.90;;;;;;5065224;28;20039;-69
2021/10/19 11:41:22;;;;;;;2.20;0.90;;;12.00;99.90;;;;;;5066118;28;20075;-70
2021/10/19 11:43:57;;;;;;;2.20;0.88;;;11.90;99.90;;;;;;5067715;28;20055;-69
2021/10/19 11:46:35;;;;;;;4.32;0.98;;;11.90;99.90;;;;;;5071934;28;20052;-68
2021/10/19 11:49:05;;;;;;;1.25;0.80;;;11.90;99.90;;;;;;5070065;28;20041;-69
2021/10/19 11:51:32;;;;;;;1.52;0.90;;;11.80;99.90;;;;;;5074154;28;20034;-69
2021/10/19 11:54:02;;;;;;;3.55;0.95;;;11.80;99.90;;;;;;5075302;28;20485;-69
2021/10/19 11:56:30;;;;;;;2.05;0.90;;;11.80;99.90;;;;;;5067784;28;20020;-70
2021/10/19 11:59:08;;;;;;;3.70;0.80;;;11.80;99.90;;;;;;5065198;28;20137;-70
2021/10/19 12:01:40;;;;;;;2.30;0.80;;;11.70;99.90;;;;;;5066020;28;20172;-69
2021/10/19 12:04:14;;;;;;;2.35;0.85;;;11.60;99.90;;;;;;5066487;28;20428;-69
2021/10/19 12:06:46;;;;;;;1.77;0.60;;;11.50;99.90;;;;;;5072831;28;20649;-69
2021/10/19 12:09:22;;;;;;;1.00;0.70;;;11.50;99.90;;;;;;5067471;28;20152;-69
2021/10/19 12:11:57;;;;;;;3.28;1.00;;;11.50;99.90;;;;;;5066311;28;20273;-70
2021/10/19 12:14:41;;;;;;;1.25;0.70;;;11.50;99.90;;;;;;5079496;28;20253;-71
2021/10/19 12:17:08;;;;;;;2.03;0.82;;;11.50;99.90;;;;;;5081834;28;20054;-69
2021/10/19 12:19:37;;;;;;;4.18;1.30;;;11.50;99.90;;;;;;5068663;28;20455;-70
2021/10/19 12:22:12;;;;;;;6.30;1.60;;;11.40;99.90;;;;;;5064212;28;20486;-68
2021/10/19 12:24:42;;;;;;;3.67;2.00;;;11.40;99.90;;;;;;5073855;28;20059;-69
2021/10/19 12:27:19;;;;;;;10.70;4.35;;;11.30;99.90;;;;;;5067690;28;20093;-68
2021/10/19 12:29:46;;;;;;;10.57;4.10;;;11.30;99.90;;;;;;5075850;28;20028;-68
2021/10/19 12:32:14;;;;;;;9.20;3.08;;;11.40;99.90;;;;;;5082303;28;20085;-70
2021/10/19 12:34:41;;;;;;;7.53;2.25;;;11.50;99.90;;;;;;5076692;28;20220;-69
2021/10/19 12:37:09;;;;;;;7.20;2.78;;;11.50;99.90;;;;;;5070859;28;20478;-70
2021/10/19 12:39:45;;;;;;;5.55;2.10;;;11.40;99.90;;;;;;5073183;28;20031;-70
2021/10/19 12:42:13;;;;;;;3.80;1.80;;;11.40;99.90;;;;;;5076390;28;20055;-69
2021/10/19 12:44:40;;;;;;;8.00;1.90;;;11.20;99.90;;;;;;5079651;28;20027;-70
2021/10/19 12:47:09;;;;;;;5.43;1.67;;;11.20;99.90;;;;;;5071996;28;20525;-70
2021/10/19 12:49:36;;;;;;;5.65;1.60;;;11.10;99.90;;;;;;5079710;28;20512;-70
2021/10/19 12:52:03;;;;;;;5.68;1.48;;;11.00;99.90;;;;;;5082089;28;20505;-70
2021/10/19 12:54:31;;;;;;;4.75;1.58;;;10.90;99.90;;;;;;5065356;22;20134;-70
2021/10/19 12:56:58;;;;;;;2.75;1.67;;;10.80;99.90;;;;;;5063854;28;20562;-70
2021/10/19 12:59:25;;;;;;;4.93;1.95;;;10.70;99.90;;;;;;5050066;28;20029;-70
2021/10/19 13:01:56;;;;;;;5.07;2.08;;;10.70;99.90;;;;;;5054674;28;20025;-70
2021/10/19 13:04:23;;;;;;;10.07;3.45;;;10.60;99.90;;;;;;5052034;28;20511;-70
2021/10/19 13:06:51;;;;;;;4.60;2.63;;;10.60;99.90;;;;;;5052237;28;20024;-69
2021/10/19 13:09:18;;;;;;;18.48;10.90;;;10.60;99.90;;;;;;5050733;28;20487;-70
2021/10/19 13:11:45;;;;;;;11.15;8.35;;;10.60;99.90;;;;;;5052792;28;20360;-69
2021/10/19 13:14:12;;;;;;;7.50;4.35;;;10.60;99.90;;;;;;5048357;28;20029;-69
2021/10/19 13:16:39;;;;;;;7.38;2.85;;;10.60;99.90;;;;;;5051647;28;20865;-67
2021/10/19 13:19:07;;;;;;;7.40;2.38;;;10.60;99.90;;;;;;5048513;28;20034;-69
2021/10/19 13:21:34;;;;;;;6.18;2.03;;;10.60;99.90;;;;;;5053244;28;20047;-70
2021/10/19 13:24:01;;;;;;;8.40;2.67;;;10.60;99.90;;;;;;5049342;28;20032;-70
2021/10/19 13:26:30;;;;;;;7.00;2.97;;;10.50;99.90;;;;;;5044452;28;20025;-70
2021/10/19 13:28:57;;;;;;;20.02;11.98;;;10.40;99.90;;;;;;5050256;28;20013;-70
2021/10/19 13:31:24;;;;;;;15.05;7.53;;;10.40;99.90;;;;;;5051286;28;20100;-71
2021/10/19 13:33:51;;;;;;;9.75;4.38;;;10.40;99.90;;;;;;5055165;28;20029;-69
2021/10/19 13:36:18;;;;;;;8.38;2.97;;;10.40;99.90;;;;;;5051758;28;20175;-69
2021/10/19 13:38:45;;;;;;;5.25;2.50;;;10.30;99.90;;;;;;5048977;28;20542;-68
2021/10/19 13:41:12;;;;;;;6.00;2.65;;;10.20;99.90;;;;;;5039969;28;20035;-70
2021/10/19 13:43:39;;;;;;;6.50;3.65;;;10.20;99.90;;;;;;5049280;28;20491;-70
2021/10/19 13:46:06;;;;;;;4.93;2.78;;;10.30;99.90;;;;;;5051898;28;20025;-69
2021/10/19 13:48:35;;;;;;;7.20;2.78;;;10.20;99.90;;;;;;5041717;28;20037;-69
2021/10/19 13:51:02;;;;;;;7.45;3.30;;;10.20;99.90;;;;;;5049395;28;20120;-70
2021/10/19 13:53:29;;;;;;;7.40;2.90;;;10.10;99.90;;;;;;5052778;28;20094;-69
2021/10/19 13:55:56;;;;;;;4.95;2.10;;;10.10;99.90;;;;;;5051483;28;20052;-69
2021/10/19 13:58:25;;;;;;;5.00;3.03;;;10.10;99.90;;;;;;5042693;28;21432;-69
2021/10/19 14:00:52;;;;;;;6.30;4.00;;;10.20;99.90;;;;;;5044196;28;20029;-68
2021/10/19 14:03:19;;;;;;;4.78;2.70;;;10.10;99.90;;;;;;5041404;28;20024;-68
2021/10/19 14:05:46;;;;;;;3.45;2.42;;;10.20;99.90;;;;;;5040200;28;20096;-67
2021/10/19 14:08:13;;;;;;;8.32;2.45;;;10.10;99.90;;;;;;5049042;28;20025;-68
2021/10/19 14:10:41;;;;;;;3.25;2.10;;;10.00;99.90;;;;;;5045771;28;20032;-69
2021/10/19 14:13:09;;;;;;;4.03;2.03;;;10.00;99.90;;;;;;5054731;28;20039;-68